sensor_id;sensor_type;location;lat;lon;timestamp;temperature;humidity
35246;DHT22;21379;50.962;6.960;2022-11-13T00:00:04;8.70;99.90
35246;DHT22;21379;50.962;6.960;2022-11-13T00:02:32;8.60;99.90
35246;DHT22;21379;50.962;6.960;2022-11-13T00:04:59;8.60;99.90
35246;DHT22;21379;50.962;6.960;2022-11-13T00:07:26;8.60;99.90
35246;DHT22;21379;50.962;6.960;2022-11-13T00:09:53;8.60;99.90
35246;DHT22;21379;50.962;6.960;2022-11-13T00:12:20;8.60;99.90
35246;DHT22;21379;50.962;6.960;2022-11-13T00:14:47;8.60;99.90
35246;DHT22;21379;50.962;6.960;2022-11-13T00:17:15;8.60;99.90
35246;DHT22;21379;50.962;6.960;2022-11-13T00:19:42;8.50;99.90
35246;DHT22;21379;50.962;6.960;2022-11-13T00:22:08;8.50;99.90
35246;DHT22;21379;50.962;6.960;2022-11-13T00:24:35;8.50;99.90
35246;DHT22;21379;50.962;6.960;2022-11-13T00:27:02;8.50;99.90
35246;DHT22;21379;50.962;6.960;2022-11-13T00:29:29;8.40;99.90
35246;DHT22;21379;50.962;6.960;2022-11-13T00:31:56;8.40;99.90
35246;DHT22;21379;50.962;6.960;2022-11-13T00:34:24;8.40;99.90
35246;DHT22;21379;50.962;6.960;2022-11-13T00:36:51;8.30;99.90
35246;DHT22;21379;50.962;6.960;2022-11-13T00:39:17;8.30;99.90
35246;DHT22;21379;50.962;6.960;2022-11-13T00:41:45;8.20;99.90
35246;DHT22;21379;50.962;6.960;2022-11-13T00:44:11;8.30;99.90
35246;DHT22;21379;50.962;6.960;2022-11-13T00:46:38;8.30;99.90
35246;DHT22;21379;50.962;6.960;2022-11-13T00:49:05;8.20;99.90
35246;DHT22;21379;50.962;6.960;2022-11-13T00:51:33;8.20;99.90
35246;DHT22;21379;50.962;6.960;2022-11-13T00:54:00;8.20;99.90
35246;DHT22;21379;50.962;6.960;2022-11-13T00:56:27;8.20;99.90
35246;DHT22;21379;50.962;6.960;2022-11-13T00:58:54;8.20;99.90
35246;DHT22;21379;50.962;6.960;2022-11-13T01:01:21;8.30;99.90
35246;DHT22;21379;50.962;6.960;2022-11-13T01:03:48;8.20;99.90
35246;DHT22;21379;50.962;6.960;2022-11-13T01:06:17;8.20;99.90
35246;DHT22;21379;50.962;6.960;2022-11-13T01:08:46;8.20;99.90
35246;DHT22;21379;50.962;6.960;2022-11-13T01:11:15;8.20;99.90
35246;DHT22;21379;50.962;6.960;2022-11-13T01:13:44;8.20;99.90
35246;DHT22;21379;50.962;6.960;2022-11-13T01:16:13;8.10;99.90
35246;DHT22;21379;50.962;6.960;2022-11-13T01:18:40;8.10;99.90
35246;DHT22;21379;50.962;6.960;2022-11-13T01:21:10;7.90;99.90
35246;DHT22;21379;50.962;6.960;2022-11-13T01:23:37;7.90;99.90
35246;DHT22;21379;50.962;6.960;2022-11-13T01:26:08;7.80;99.90
35246;DHT22;21379;50.962;6.960;2022-11-13T01:28:36;7.70;99.90
35246;DHT22;21379;50.962;6.960;2022-11-13T01:31:06;7.70;99.90
35246;DHT22;21379;50.962;6.960;2022-11-13T01:33:34;7.60;99.90
35246;DHT22;21379;50.962;6.960;2022-11-13T01:36:02;7.50;99.90
35246;DHT22;21379;50.962;6.960;2022-11-13T01:38:29;7.50;99.90
35246;DHT22;21379;50.962;6.960;2022-11-13T01:40:56;7.40;99.90
35246;DHT22;21379;50.962;6.960;2022-11-13T01:43:26;7.40;99.90
35246;DHT22;21379;50.962;6.960;2022-11-13T01:46:12;7.40;99.90
35246;DHT22;21379;50.962;6.960;2022-11-13T01:48:41;7.30;99.90
35246;DHT22;21379;50.962;6.960;2022-11-13T01:51:11;7.40;99.90
35246;DHT22;21379;50.962;6.960;2022-11-13T01:53:40;7.40;99.90
35246;DHT22;21379;50.962;6.960;2022-11-13T01:56:09;7.30;99.90
35246;DHT22;21379;50.962;6.960;2022-11-13T01:58:38;7.20;99.90
35246;DHT22;21379;50.962;6.960;2022-11-13T02:01:06;7.20;99.90
35246;DHT22;21379;50.962;6.960;2022-11-13T02:03:33;7.20;99.90
35246;DHT22;21379;50.962;6.960;2022-11-13T02:06:00;7.10;99.90
35246;DHT22;21379;50.962;6.960;2022-11-13T02:08:27;7.10;99.90
35246;DHT22;21379;50.962;6.960;2022-11-13T02:10:55;7.10;99.90
35246;DHT22;21379;50.962;6.960;2022-11-13T02:13:22;7.10;99.90
35246;DHT22;21379;50.962;6.960;2022-11-13T02:15:52;7.20;99.90
35246;DHT22;21379;50.962;6.960;2022-11-13T02:18:21;7.10;99.90
35246;DHT22;21379;50.962;6.960;2022-11-13T02:20:54;7.10;99.90
35246;DHT22;21379;50.962;6.960;2022-11-13T02:23:27;7.00;99.90
35246;DHT22;21379;50.962;6.960;2022-11-13T02:25:59;7.00;99.90
35246;DHT22;21379;50.962;6.960;2022-11-13T02:28:26;7.00;99.90
35246;DHT22;21379;50.962;6.960;2022-11-13T02:30:53;7.00;99.90
35246;DHT22;21379;50.962;6.960;2022-11-13T02:33:22;6.90;99.90
35246;DHT22;21379;50.962;6.960;2022-11-13T02:35:50;6.90;99.90
35246;DHT22;21379;50.962;6.960;2022-11-13T02:38:17;6.90;99.90
35246;DHT22;21379;50.962;6.960;2022-11-13T02:40:43;6.90;99.90
35246;DHT22;21379;50.962;6.960;2022-11-13T02:43:12;6.90;99.90
35246;DHT22;21379;50.962;6.960;2022-11-13T02:45:38;6.80;99.90
35246;DHT22;21379;50.962;6.960;2022-11-13T02:48:06;6.80;99.90
35246;DHT22;21379;50.962;6.960;2022-11-13T02:50:34;6.80;99.90
35246;DHT22;21379;50.962;6.960;2022-11-13T02:53:03;6.80;99.90
35246;DHT22;21379;50.962;6.960;2022-11-13T02:55:30;6.80;99.90
35246;DHT22;21379;50.962;6.960;2022-11-13T02:57:57;6.80;99.90
35246;DHT22;21379;50.962;6.960;2022-11-13T03:00:25;6.80;99.90
35246;DHT22;21379;50.962;6.960;2022-11-13T03:02:52;6.80;99.90
35246;DHT22;21379;50.962;6.960;2022-11-13T03:05:20;6.80;99.90
35246;DHT22;21379;50.962;6.960;2022-11-13T03:07:47;6.80;99.90
35246;DHT22;21379;50.962;6.960;2022-11-13T03:10:14;6.70;99.90
35246;DHT22;21379;50.962;6.960;2022-11-13T03:12:41;6.70;99.90
35246;DHT22;21379;50.962;6.960;2022-11-13T03:15:09;6.70;99.90
35246;DHT22;21379;50.962;6.960;2022-11-13T03:17:37;6.70;99.90
35246;DHT22;21379;50.962;6.960;2022-11-13T03:20:05;6.70;99.90
35246;DHT22;21379;50.962;6.960;2022-11-13T03:22:32;6.60;99.90
35246;DHT22;21379;50.962;6.960;2022-11-13T03:24:59;6.60;99.90
35246;DHT22;21379;50.962;6.960;2022-11-13T03:27:26;6.50;99.90
35246;DHT22;21379;50.962;6.960;2022-11-13T03:29:52;6.50;99.90
35246;DHT22;21379;50.962;6.960;2022-11-13T03:32:19;6.50;99.90
35246;DHT22;21379;50.962;6.960;2022-11-13T03:34:47;6.50;99.90
35246;DHT22;21379;50.962;6.960;2022-11-13T03:37:14;6.40;99.90
35246;DHT22;21379;50.962;6.960;2022-11-13T03:39:41;6.40;99.90
35246;DHT22;21379;50.962;6.960;2022-11-13T03:42:08;6.40;99.90
35246;DHT22;21379;50.962;6.960;2022-11-13T03:44:34;6.40;99.90
35246;DHT22;21379;50.962;6.960;2022-11-13T03:47:01;6.30;99.90
35246;DHT22;21379;50.962;6.960;2022-11-13T03:49:28;6.30;99.90
35246;DHT22;21379;50.962;6.960;2022-11-13T03:51:56;6.30;99.90
35246;DHT22;21379;50.962;6.960;2022-11-13T03:54:23;6.30;99.90
35246;DHT22;21379;50.962;6.960;2022-11-13T03:56:50;6.30;99.90
35246;DHT22;21379;50.962;6.960;2022-11-13T03:59:17;6.30;99.90
35246;DHT22;21379;50.962;6.960;2022-11-13T04:01:43;6.30;99.90
35246;DHT22;21379;50.962;6.960;2022-11-13T04:04:11;6.30;99.90
35246;DHT22;21379;50.962;6.960;2022-11-13T04:06:37;6.50;99.90
35246;DHT22;21379;50.962;6.960;2022-11-13T04:09:06;6.50;99.90
35246;DHT22;21379;50.962;6.960;2022-11-13T04:11:33;6.50;99.90
35246;DHT22;21379;50.962;6.960;2022-11-13T04:14:00;6.60;99.90
35246;DHT22;21379;50.962;6.960;2022-11-13T04:16:26;6.50;99.90
35246;DHT22;21379;50.962;6.960;2022-11-13T04:18:53;6.40;99.90
35246;DHT22;21379;50.962;6.960;2022-11-13T04:21:20;6.40;99.90
35246;DHT22;21379;50.962;6.960;2022-11-13T04:23:47;6.50;99.90
35246;DHT22;21379;50.962;6.960;2022-11-13T04:26:15;6.50;99.90
35246;DHT22;21379;50.962;6.960;2022-11-13T04:28:42;6.60;99.90
35246;DHT22;21379;50.962;6.960;2022-11-13T04:31:09;6.50;99.90
35246;DHT22;21379;50.962;6.960;2022-11-13T04:33:35;6.50;99.90
35246;DHT22;21379;50.962;6.960;2022-11-13T04:36:03;6.40;99.90
35246;DHT22;21379;50.962;6.960;2022-11-13T04:38:29;6.50;99.90
35246;DHT22;21379;50.962;6.960;2022-11-13T04:40:56;6.60;99.90
35246;DHT22;21379;50.962;6.960;2022-11-13T04:43:38;6.70;99.90
35246;DHT22;21379;50.962;6.960;2022-11-13T04:46:05;6.70;99.90
35246;DHT22;21379;50.962;6.960;2022-11-13T04:48:32;6.80;99.90
35246;DHT22;21379;50.962;6.960;2022-11-13T04:50:59;6.90;99.90
35246;DHT22;21379;50.962;6.960;2022-11-13T04:53:26;6.90;99.90
35246;DHT22;21379;50.962;6.960;2022-11-13T04:55:53;7.00;99.90
35246;DHT22;21379;50.962;6.960;2022-11-13T04:58:19;7.10;99.90
35246;DHT22;21379;50.962;6.960;2022-11-13T05:00:48;7.10;99.90
35246;DHT22;21379;50.962;6.960;2022-11-13T05:03:14;7.10;99.90
35246;DHT22;21379;50.962;6.960;2022-11-13T05:05:41;7.10;99.90
35246;DHT22;21379;50.962;6.960;2022-11-13T05:08:08;7.10;99.90
35246;DHT22;21379;50.962;6.960;2022-11-13T05:10:35;7.10;99.90
35246;DHT22;21379;50.962;6.960;2022-11-13T05:13:02;7.10;99.90
35246;DHT22;21379;50.962;6.960;2022-11-13T05:15:28;7.10;99.90
35246;DHT22;21379;50.962;6.960;2022-11-13T05:17:57;7.10;99.90
35246;DHT22;21379;50.962;6.960;2022-11-13T05:20:23;7.10;99.90
35246;DHT22;21379;50.962;6.960;2022-11-13T05:22:50;7.10;99.90
35246;DHT22;21379;50.962;6.960;2022-11-13T05:25:17;7.00;99.90
35246;DHT22;21379;50.962;6.960;2022-11-13T05:27:44;7.00;99.90
35246;DHT22;21379;50.962;6.960;2022-11-13T05:30:11;7.00;99.90
35246;DHT22;21379;50.962;6.960;2022-11-13T05:32:38;7.00;99.90
35246;DHT22;21379;50.962;6.960;2022-11-13T05:35:06;7.00;99.90
35246;DHT22;21379;50.962;6.960;2022-11-13T05:37:33;7.00;99.90
35246;DHT22;21379;50.962;6.960;2022-11-13T05:40:00;7.00;99.90
35246;DHT22;21379;50.962;6.960;2022-11-13T05:42:27;6.90;99.90
35246;DHT22;21379;50.962;6.960;2022-11-13T05:44:53;6.90;99.90
35246;DHT22;21379;50.962;6.960;2022-11-13T05:47:20;6.90;99.90
35246;DHT22;21379;50.962;6.960;2022-11-13T05:49:47;6.90;99.90
35246;DHT22;21379;50.962;6.960;2022-11-13T05:52:15;6.80;99.90
35246;DHT22;21379;50.962;6.960;2022-11-13T05:54:42;6.80;99.90
35246;DHT22;21379;50.962;6.960;2022-11-13T05:57:09;6.60;99.90
35246;DHT22;21379;50.962;6.960;2022-11-13T05:59:36;6.60;99.90
35246;DHT22;21379;50.962;6.960;2022-11-13T06:02:02;6.50;99.90
35246;DHT22;21379;50.962;6.960;2022-11-13T06:04:29;6.50;99.90
35246;DHT22;21379;50.962;6.960;2022-11-13T06:06:56;6.40;99.90
35246;DHT22;21379;50.962;6.960;2022-11-13T06:09:24;6.50;99.90
35246;DHT22;21379;50.962;6.960;2022-11-13T06:11:51;6.50;99.90
35246;DHT22;21379;50.962;6.960;2022-11-13T06:14:18;6.50;99.90
35246;DHT22;21379;50.962;6.960;2022-11-13T06:16:45;6.50;99.90
35246;DHT22;21379;50.962;6.960;2022-11-13T06:19:11;6.50;99.90
35246;DHT22;21379;50.962;6.960;2022-11-13T06:21:39;6.50;99.90
35246;DHT22;21379;50.962;6.960;2022-11-13T06:24:08;6.50;99.90
35246;DHT22;21379;50.962;6.960;2022-11-13T06:26:38;6.50;99.90
35246;DHT22;21379;50.962;6.960;2022-11-13T06:29:06;6.40;99.90
35246;DHT22;21379;50.962;6.960;2022-11-13T06:31:35;6.40;99.90
35246;DHT22;21379;50.962;6.960;2022-11-13T06:34:03;6.40;99.90
35246;DHT22;21379;50.962;6.960;2022-11-13T06:36:31;6.40;99.90
35246;DHT22;21379;50.962;6.960;2022-11-13T06:38:59;6.30;99.90
35246;DHT22;21379;50.962;6.960;2022-11-13T06:41:27;6.20;99.90
35246;DHT22;21379;50.962;6.960;2022-11-13T06:43:57;6.10;99.90
35246;DHT22;21379;50.962;6.960;2022-11-13T06:46:25;6.10;99.90
35246;DHT22;21379;50.962;6.960;2022-11-13T06:48:53;6.10;99.90
35246;DHT22;21379;50.962;6.960;2022-11-13T06:51:21;6.00;99.90
35246;DHT22;21379;50.962;6.960;2022-11-13T06:53:49;6.10;99.90
35246;DHT22;21379;50.962;6.960;2022-11-13T06:56:16;6.00;99.90
35246;DHT22;21379;50.962;6.960;2022-11-13T06:58:43;6.00;99.90
35246;DHT22;21379;50.962;6.960;2022-11-13T07:01:13;6.00;99.90
35246;DHT22;21379;50.962;6.960;2022-11-13T07:03:41;5.90;99.90
35246;DHT22;21379;50.962;6.960;2022-11-13T07:06:10;5.90;99.90
35246;DHT22;21379;50.962;6.960;2022-11-13T07:08:39;5.90;99.90
35246;DHT22;21379;50.962;6.960;2022-11-13T07:11:07;6.00;99.90
35246;DHT22;21379;50.962;6.960;2022-11-13T07:13:36;6.00;99.90
35246;DHT22;21379;50.962;6.960;2022-11-13T07:16:05;6.00;99.90
35246;DHT22;21379;50.962;6.960;2022-11-13T07:18:33;6.10;99.90
35246;DHT22;21379;50.962;6.960;2022-11-13T07:21:03;6.20;99.90
35246;DHT22;21379;50.962;6.960;2022-11-13T07:23:31;6.30;99.90
35246;DHT22;21379;50.962;6.960;2022-11-13T07:25:58;6.40;99.90
35246;DHT22;21379;50.962;6.960;2022-11-13T07:28:25;6.50;99.90
35246;DHT22;21379;50.962;6.960;2022-11-13T07:30:51;6.60;99.90
35246;DHT22;21379;50.962;6.960;2022-11-13T07:33:18;6.70;99.90
35246;DHT22;21379;50.962;6.960;2022-11-13T07:35:46;6.70;99.90
35246;DHT22;21379;50.962;6.960;2022-11-13T07:38:13;6.80;99.90
35246;DHT22;21379;50.962;6.960;2022-11-13T07:40:40;6.80;99.90
35246;DHT22;21379;50.962;6.960;2022-11-13T07:43:07;6.90;99.90
35246;DHT22;21379;50.962;6.960;2022-11-13T07:45:34;7.00;99.90
35246;DHT22;21379;50.962;6.960;2022-11-13T07:48:01;7.00;99.90
35246;DHT22;21379;50.962;6.960;2022-11-13T07:50:30;7.10;99.90
35246;DHT22;21379;50.962;6.960;2022-11-13T07:53:00;7.20;99.90
35246;DHT22;21379;50.962;6.960;2022-11-13T07:55:27;7.20;99.90
35246;DHT22;21379;50.962;6.960;2022-11-13T07:57:55;7.20;99.90
35246;DHT22;21379;50.962;6.960;2022-11-13T08:00:22;7.20;99.90
35246;DHT22;21379;50.962;6.960;2022-11-13T08:02:49;7.20;99.90
35246;DHT22;21379;50.962;6.960;2022-11-13T08:05:16;7.30;99.90
35246;DHT22;21379;50.962;6.960;2022-11-13T08:07:45;7.20;99.90
35246;DHT22;21379;50.962;6.960;2022-11-13T08:10:15;7.30;99.90
35246;DHT22;21379;50.962;6.960;2022-11-13T08:12:42;7.40;99.90
35246;DHT22;21379;50.962;6.960;2022-11-13T08:15:10;7.50;99.90
35246;DHT22;21379;50.962;6.960;2022-11-13T08:17:37;7.60;99.90
35246;DHT22;21379;50.962;6.960;2022-11-13T08:20:04;7.70;99.90
35246;DHT22;21379;50.962;6.960;2022-11-13T08:22:32;7.80;99.90
35246;DHT22;21379;50.962;6.960;2022-11-13T08:24:59;7.90;99.90
35246;DHT22;21379;50.962;6.960;2022-11-13T08:27:27;8.00;99.90
35246;DHT22;21379;50.962;6.960;2022-11-13T08:29:54;8.40;99.90
35246;DHT22;21379;50.962;6.960;2022-11-13T08:32:21;8.60;99.90
35246;DHT22;21379;50.962;6.960;2022-11-13T08:34:48;9.00;99.90
35246;DHT22;21379;50.962;6.960;2022-11-13T08:37:14;9.20;99.90
35246;DHT22;21379;50.962;6.960;2022-11-13T08:39:41;9.30;99.90
35246;DHT22;21379;50.962;6.960;2022-11-13T08:42:08;9.50;99.90
35246;DHT22;21379;50.962;6.960;2022-11-13T08:44:36;9.70;99.90
35246;DHT22;21379;50.962;6.960;2022-11-13T08:47:03;9.80;99.90
35246;DHT22;21379;50.962;6.960;2022-11-13T08:49:30;10.00;99.90
35246;DHT22;21379;50.962;6.960;2022-11-13T08:51:57;10.10;99.90
35246;DHT22;21379;50.962;6.960;2022-11-13T08:54:24;10.20;99.90
35246;DHT22;21379;50.962;6.960;2022-11-13T08:56:51;10.40;99.90
35246;DHT22;21379;50.962;6.960;2022-11-13T08:59:17;10.60;99.90
35246;DHT22;21379;50.962;6.960;2022-11-13T09:01:45;10.60;99.90
35246;DHT22;21379;50.962;6.960;2022-11-13T09:04:12;10.70;99.90
35246;DHT22;21379;50.962;6.960;2022-11-13T09:06:39;10.90;99.90
35246;DHT22;21379;50.962;6.960;2022-11-13T09:09:06;11.10;99.90
35246;DHT22;21379;50.962;6.960;2022-11-13T09:11:33;11.40;99.90
35246;DHT22;21379;50.962;6.960;2022-11-13T09:14:00;11.60;99.90
35246;DHT22;21379;50.962;6.960;2022-11-13T09:16:27;11.90;99.90
35246;DHT22;21379;50.962;6.960;2022-11-13T09:18:55;12.00;99.90
35246;DHT22;21379;50.962;6.960;2022-11-13T09:21:22;12.10;99.90
35246;DHT22;21379;50.962;6.960;2022-11-13T09:23:49;12.40;99.90
35246;DHT22;21379;50.962;6.960;2022-11-13T09:26:16;12.50;99.90
35246;DHT22;21379;50.962;6.960;2022-11-13T09:28:43;12.60;99.90
35246;DHT22;21379;50.962;6.960;2022-11-13T09:31:10;12.70;99.90
35246;DHT22;21379;50.962;6.960;2022-11-13T09:33:37;13.10;99.90
35246;DHT22;21379;50.962;6.960;2022-11-13T09:36:10;13.50;99.90
35246;DHT22;21379;50.962;6.960;2022-11-13T09:38:37;13.80;99.90
35246;DHT22;21379;50.962;6.960;2022-11-13T09:41:07;14.50;99.90
35246;DHT22;21379;50.962;6.960;2022-11-13T09:43:38;14.70;99.90
35246;DHT22;21379;50.962;6.960;2022-11-13T09:46:10;14.90;99.90
35246;DHT22;21379;50.962;6.960;2022-11-13T09:48:45;15.00;99.90
35246;DHT22;21379;50.962;6.960;2022-11-13T09:51:17;15.10;99.90
35246;DHT22;21379;50.962;6.960;2022-11-13T09:53:44;15.20;99.90
35246;DHT22;21379;50.962;6.960;2022-11-13T09:56:27;15.10;99.90
35246;DHT22;21379;50.962;6.960;2022-11-13T09:59:01;14.90;99.90
35246;DHT22;21379;50.962;6.960;2022-11-13T10:01:36;15.10;99.90
35246;DHT22;21379;50.962;6.960;2022-11-13T10:04:07;15.20;99.90
35246;DHT22;21379;50.962;6.960;2022-11-13T10:06:51;15.20;99.90
35246;DHT22;21379;50.962;6.960;2022-11-13T10:09:31;15.00;99.90
35246;DHT22;21379;50.962;6.960;2022-11-13T10:12:04;14.90;99.90
35246;DHT22;21379;50.962;6.960;2022-11-13T10:14:35;15.30;99.90
35246;DHT22;21379;50.962;6.960;2022-11-13T10:17:10;15.50;99.90
35246;DHT22;21379;50.962;6.960;2022-11-13T10:19:41;15.80;99.90
35246;DHT22;21379;50.962;6.960;2022-11-13T10:22:17;16.10;99.90
35246;DHT22;21379;50.962;6.960;2022-11-13T10:24:45;16.20;99.90
35246;DHT22;21379;50.962;6.960;2022-11-13T10:27:15;15.90;99.90
35246;DHT22;21379;50.962;6.960;2022-11-13T10:29:42;15.80;99.90
35246;DHT22;21379;50.962;6.960;2022-11-13T10:32:18;15.50;99.90
35246;DHT22;21379;50.962;6.960;2022-11-13T10:34:48;15.30;99.90
35246;DHT22;21379;50.962;6.960;2022-11-13T10:37:29;15.20;99.90
35246;DHT22;21379;50.962;6.960;2022-11-13T10:39:57;15.40;99.90
35246;DHT22;21379;50.962;6.960;2022-11-13T10:42:27;15.30;99.90
35246;DHT22;21379;50.962;6.960;2022-11-13T10:44:56;15.40;99.90
35246;DHT22;21379;50.962;6.960;2022-11-13T10:47:24;15.20;99.90
35246;DHT22;21379;50.962;6.960;2022-11-13T10:49:51;15.30;99.90
35246;DHT22;21379;50.962;6.960;2022-11-13T10:52:22;15.40;99.90
35246;DHT22;21379;50.962;6.960;2022-11-13T10:54:50;15.60;99.90
35246;DHT22;21379;50.962;6.960;2022-11-13T10:57:27;15.60;99.90
35246;DHT22;21379;50.962;6.960;2022-11-13T10:59:54;15.50;99.90
35246;DHT22;21379;50.962;6.960;2022-11-13T11:02:23;15.40;99.90
35246;DHT22;21379;50.962;6.960;2022-11-13T11:05:01;15.20;99.90
35246;DHT22;21379;50.962;6.960;2022-11-13T11:07:33;15.50;99.90
35246;DHT22;21379;50.962;6.960;2022-11-13T11:10:13;15.80;99.90
35246;DHT22;21379;50.962;6.960;2022-11-13T11:12:50;16.40;99.90
35246;DHT22;21379;50.962;6.960;2022-11-13T11:15:21;16.90;99.90
35246;DHT22;21379;50.962;6.960;2022-11-13T11:17:51;17.30;99.90
35246;DHT22;21379;50.962;6.960;2022-11-13T11:20:27;17.50;99.90
35246;DHT22;21379;50.962;6.960;2022-11-13T11:23:04;17.40;99.90
35246;DHT22;21379;50.962;6.960;2022-11-13T11:25:39;17.20;99.90
35246;DHT22;21379;50.962;6.960;2022-11-13T11:28:14;17.30;99.90
35246;DHT22;21379;50.962;6.960;2022-11-13T11:30:46;17.70;99.90
35246;DHT22;21379;50.962;6.960;2022-11-13T11:33:19;17.80;99.90
35246;DHT22;21379;50.962;6.960;2022-11-13T11:35:51;17.70;99.90
35246;DHT22;21379;50.962;6.960;2022-11-13T11:38:23;17.80;99.90
35246;DHT22;21379;50.962;6.960;2022-11-13T11:40:53;17.80;99.90
35246;DHT22;21379;50.962;6.960;2022-11-13T11:43:26;17.90;99.90
35246;DHT22;21379;50.962;6.960;2022-11-13T11:45:54;18.00;99.90
35246;DHT22;21379;50.962;6.960;2022-11-13T11:48:24;18.10;99.90
35246;DHT22;21379;50.962;6.960;2022-11-13T11:51:00;18.10;99.90
35246;DHT22;21379;50.962;6.960;2022-11-13T11:53:38;17.90;99.90
35246;DHT22;21379;50.962;6.960;2022-11-13T11:56:20;17.30;99.90
35246;DHT22;21379;50.962;6.960;2022-11-13T12:01:57;17.20;99.90
35246;DHT22;21379;50.962;6.960;2022-11-13T12:04:46;17.30;99.90
35246;DHT22;21379;50.962;6.960;2022-11-13T12:07:29;17.20;99.90
35246;DHT22;21379;50.962;6.960;2022-11-13T12:10:06;17.30;99.90
35246;DHT22;21379;50.962;6.960;2022-11-13T12:12:46;17.40;99.90
35246;DHT22;21379;50.962;6.960;2022-11-13T12:15:19;17.70;99.90
35246;DHT22;21379;50.962;6.960;2022-11-13T12:17:57;17.80;99.90
35246;DHT22;21379;50.962;6.960;2022-11-13T12:20:33;17.50;99.90
35246;DHT22;21379;50.962;6.960;2022-11-13T12:23:07;17.20;99.90
35246;DHT22;21379;50.962;6.960;2022-11-13T12:25:44;17.40;99.90
35246;DHT22;21379;50.962;6.960;2022-11-13T12:28:14;17.30;99.90
35246;DHT22;21379;50.962;6.960;2022-11-13T12:30:51;17.10;99.90
35246;DHT22;21379;50.962;6.960;2022-11-13T12:33:30;17.10;99.90
35246;DHT22;21379;50.962;6.960;2022-11-13T12:36:00;17.00;99.90
35246;DHT22;21379;50.962;6.960;2022-11-13T12:38:35;16.90;99.90
35246;DHT22;21379;50.962;6.960;2022-11-13T12:41:12;16.80;99.90
35246;DHT22;21379;50.962;6.960;2022-11-13T12:44:00;16.70;99.90
35246;DHT22;21379;50.962;6.960;2022-11-13T12:46:34;16.50;99.90
35246;DHT22;21379;50.962;6.960;2022-11-13T12:49:02;16.70;99.90
35246;DHT22;21379;50.962;6.960;2022-11-13T12:51:40;16.80;99.90
35246;DHT22;21379;50.962;6.960;2022-11-13T12:54:27;16.80;99.90
35246;DHT22;21379;50.962;6.960;2022-11-13T12:57:15;16.90;99.90
35246;DHT22;21379;50.962;6.960;2022-11-13T12:59:45;16.90;99.90
35246;DHT22;21379;50.962;6.960;2022-11-13T13:02:30;16.70;99.90
35246;DHT22;21379;50.962;6.960;2022-11-13T13:05:12;16.70;99.90
35246;DHT22;21379;50.962;6.960;2022-11-13T13:07:52;16.60;99.90
35246;DHT22;21379;50.962;6.960;2022-11-13T13:10:25;16.80;99.90
35246;DHT22;21379;50.962;6.960;2022-11-13T13:12:58;16.90;99.90
35246;DHT22;21379;50.962;6.960;2022-11-13T13:15:31;17.20;99.90
35246;DHT22;21379;50.962;6.960;2022-11-13T13:18:04;17.20;99.90
35246;DHT22;21379;50.962;6.960;2022-11-13T13:20:34;17.30;99.90
35246;DHT22;21379;50.962;6.960;2022-11-13T13:23:02;17.40;99.90
35246;DHT22;21379;50.962;6.960;2022-11-13T13:25:30;17.30;99.90
35246;DHT22;21379;50.962;6.960;2022-11-13T13:28:00;17.20;99.90
35246;DHT22;21379;50.962;6.960;2022-11-13T13:30:29;17.20;99.90
35246;DHT22;21379;50.962;6.960;2022-11-13T13:33:12;17.20;99.90
35246;DHT22;21379;50.962;6.960;2022-11-13T13:35:45;17.40;99.90
35246;DHT22;21379;50.962;6.960;2022-11-13T13:38:18;17.50;99.90
35246;DHT22;21379;50.962;6.960;2022-11-13T13:41:05;17.60;99.90
35246;DHT22;21379;50.962;6.960;2022-11-13T13:43:48;17.60;99.90
35246;DHT22;21379;50.962;6.960;2022-11-13T13:46:18;17.80;99.90
35246;DHT22;21379;50.962;6.960;2022-11-13T13:48:48;17.80;99.90
35246;DHT22;21379;50.962;6.960;2022-11-13T13:51:19;17.70;99.90
35246;DHT22;21379;50.962;6.960;2022-11-13T13:53:48;17.50;99.90
35246;DHT22;21379;50.962;6.960;2022-11-13T13:56:16;17.50;99.90
35246;DHT22;21379;50.962;6.960;2022-11-13T13:58:44;17.20;99.90
35246;DHT22;21379;50.962;6.960;2022-11-13T14:01:14;17.20;99.90
35246;DHT22;21379;50.962;6.960;2022-11-13T14:03:40;17.10;99.90
35246;DHT22;21379;50.962;6.960;2022-11-13T14:06:13;17.00;99.90
35246;DHT22;21379;50.962;6.960;2022-11-13T14:08:42;16.90;99.90
35246;DHT22;21379;50.962;6.960;2022-11-13T14:11:17;17.00;99.90
35246;DHT22;21379;50.962;6.960;2022-11-13T14:13:45;17.20;99.90
35246;DHT22;21379;50.962;6.960;2022-11-13T14:16:12;17.50;99.90
35246;DHT22;21379;50.962;6.960;2022-11-13T14:18:39;17.90;99.90
35246;DHT22;21379;50.962;6.960;2022-11-13T14:21:10;17.90;99.90
35246;DHT22;21379;50.962;6.960;2022-11-13T14:23:44;17.80;99.90
35246;DHT22;21379;50.962;6.960;2022-11-13T14:26:12;17.10;99.90
35246;DHT22;21379;50.962;6.960;2022-11-13T14:28:57;17.20;99.90
35246;DHT22;21379;50.962;6.960;2022-11-13T14:31:25;16.80;99.90
35246;DHT22;21379;50.962;6.960;2022-11-13T14:33:54;16.70;99.90
35246;DHT22;21379;50.962;6.960;2022-11-13T14:36:25;16.60;99.90
35246;DHT22;21379;50.962;6.960;2022-11-13T14:38:55;16.60;99.90
35246;DHT22;21379;50.962;6.960;2022-11-13T14:41:25;16.50;99.90
35246;DHT22;21379;50.962;6.960;2022-11-13T14:43:55;16.30;99.90
35246;DHT22;21379;50.962;6.960;2022-11-13T14:46:28;16.30;99.90
35246;DHT22;21379;50.962;6.960;2022-11-13T14:48:56;16.10;99.90
35246;DHT22;21379;50.962;6.960;2022-11-13T14:51:25;15.70;99.90
35246;DHT22;21379;50.962;6.960;2022-11-13T14:54:00;15.40;99.90
35246;DHT22;21379;50.962;6.960;2022-11-13T14:56:32;15.10;99.90
35246;DHT22;21379;50.962;6.960;2022-11-13T14:59:08;14.80;99.90
35246;DHT22;21379;50.962;6.960;2022-11-13T15:01:35;14.60;99.90
35246;DHT22;21379;50.962;6.960;2022-11-13T15:04:02;14.40;99.90
35246;DHT22;21379;50.962;6.960;2022-11-13T15:06:35;14.30;99.90
35246;DHT22;21379;50.962;6.960;2022-11-13T15:09:04;14.10;99.90
35246;DHT22;21379;50.962;6.960;2022-11-13T15:11:31;14.00;99.90
35246;DHT22;21379;50.962;6.960;2022-11-13T15:13:59;13.90;99.90
35246;DHT22;21379;50.962;6.960;2022-11-13T15:16:28;13.70;99.90
35246;DHT22;21379;50.962;6.960;2022-11-13T15:18:59;13.60;99.90
35246;DHT22;21379;50.962;6.960;2022-11-13T15:21:27;13.50;99.90
35246;DHT22;21379;50.962;6.960;2022-11-13T15:23:54;13.40;99.90
35246;DHT22;21379;50.962;6.960;2022-11-13T15:26:21;13.20;99.90
35246;DHT22;21379;50.962;6.960;2022-11-13T15:28:48;13.10;99.90
35246;DHT22;21379;50.962;6.960;2022-11-13T15:31:18;12.90;99.90
35246;DHT22;21379;50.962;6.960;2022-11-13T15:33:47;12.80;99.90
35246;DHT22;21379;50.962;6.960;2022-11-13T15:36:14;12.70;99.90
35246;DHT22;21379;50.962;6.960;2022-11-13T15:38:41;12.70;99.90
35246;DHT22;21379;50.962;6.960;2022-11-13T15:41:12;12.60;99.90
35246;DHT22;21379;50.962;6.960;2022-11-13T15:43:41;12.60;99.90
35246;DHT22;21379;50.962;6.960;2022-11-13T15:46:11;12.40;99.90
35246;DHT22;21379;50.962;6.960;2022-11-13T15:48:40;12.20;99.90
35246;DHT22;21379;50.962;6.960;2022-11-13T15:51:13;12.10;99.90
35246;DHT22;21379;50.962;6.960;2022-11-13T15:53:41;11.90;99.90
35246;DHT22;21379;50.962;6.960;2022-11-13T15:56:08;11.90;99.90